Portada
METAR-TAF:

METAR-TAF

Aeroports :

Aeroport Internacional de Ginebra

Ginebra, Suïssa

latitud: 46-15N, longitud: 006-08E, altitud: 420 m

Observació

L'informe es va fer fa 38 minuts, a les 18:50 UTC
Vent 1 kt del Est/Nord-Est
Temperatura 15°C
Humitat 67%
Pressió 1014 hPa
Visibilitat 10 km o més
sense núvols per sota de 1500 mi sense presència de cumulonimbus.

METAR: LSGG 151850Z 07001KT CAVOK 15/09 Q1014 NOSIG

Hora: 21:28 (19:28 UTC)

Pronòstic

L'informe es va fer fa 2 hores i 3 minuts, a les 17:25 UTC
Pronòstic vàlid del 15 a les 18 UTC al 16 a les 24 UTC
Vent 4 kt amb direcció variable
Visibilitat 10 km o més
sense núvols per sota de 1500 mi sense presència de cumulonimbus.

TAF: LSGG 151725Z 1518/1624 VRB04KT CAVOK TX21/1615Z TN08/1606Z

Observacions i pronòstics meteorològics de més de 4000 aeroports (METAR i TAF).

Les estacions disponibles són els punts grocs i vermells al mapa.

Posi el ratolí al punt desitjat per veure el nom de l'estació.

Feu clic per veure les observacions i els pronòstics meteorològics.

Per canviar el mapa: feu clic els botons verds amb una creu de color negre per apropar; al botó verd amb un guió per allunyar la imatge; o en les fletxes verdes per a mapes adjacents.


METAR-TAF: